createdAt,value
2023-05-23T00:01:25.573Z,60.91
2023-05-23T00:05:03.977Z,60.99
2023-05-23T00:08:24.893Z,60.87
2023-05-23T00:11:48.898Z,61.46
2023-05-23T00:15:12.568Z,61.18
2023-05-23T00:18:33.586Z,61.90
2023-05-23T00:22:10.581Z,62.82
2023-05-23T00:25:37.584Z,63.30
2023-05-23T00:28:57.791Z,63.49
2023-05-23T00:32:10.894Z,63.28
2023-05-23T00:35:18.235Z,63.95
2023-05-23T00:38:24.195Z,64.26
2023-05-23T00:41:31.003Z,64.19
2023-05-23T00:44:39.565Z,64.70
2023-05-23T00:47:48.398Z,64.33
2023-05-23T00:51:08.233Z,64.79
2023-05-23T00:54:37.080Z,65.41
2023-05-23T00:58:01.142Z,64.79
2023-05-23T01:01:26.242Z,65.15
2023-05-23T01:04:56.068Z,64.97
2023-05-23T01:08:19.006Z,64.71
2023-05-23T01:11:43.554Z,65.12
2023-05-23T01:15:18.633Z,64.72
2023-05-23T01:18:42.519Z,65.73
2023-05-23T01:21:58.453Z,65.46
2023-05-23T01:25:26.757Z,65.45
2023-05-23T01:28:43.071Z,65.13
2023-05-23T01:32:09.259Z,65.02
2023-05-23T01:35:31.543Z,64.87
2023-05-23T01:38:52.444Z,65.42
2023-05-23T01:42:13.923Z,67.25
2023-05-23T01:45:38.876Z,66.78
2023-05-23T01:48:49.231Z,68.08
2023-05-23T01:51:55.555Z,67.68
2023-05-23T01:55:04.225Z,66.63
2023-05-23T01:58:11.743Z,68.08
2023-05-23T02:01:21.910Z,68.32
2023-05-23T02:04:27.794Z,67.72
2023-05-23T02:07:36.721Z,68.95
2023-05-23T02:10:57.638Z,68.71
2023-05-23T02:14:18.863Z,69.17
2023-05-23T02:17:43.374Z,70.12
2023-05-23T02:21:04.613Z,70.05
2023-05-23T02:24:25.467Z,70.24
2023-05-23T02:27:46.406Z,70.94
2023-05-23T02:31:09.421Z,71.04
2023-05-23T02:34:33.108Z,71.15
2023-05-23T02:37:53.930Z,71.11
2023-05-23T02:41:15.047Z,70.28
2023-05-23T02:44:36.025Z,70.56
2023-05-23T02:47:57.088Z,70.45
2023-05-23T02:51:07.867Z,70.58
2023-05-23T02:54:13.834Z,70.08
2023-05-23T02:57:20.811Z,70.38
2023-05-23T03:00:26.778Z,70.37
2023-05-23T03:03:36.857Z,70.22
2023-05-23T03:06:45.899Z,70.19
2023-05-23T03:09:52.808Z,70.85
2023-05-23T03:12:58.727Z,70.60
2023-05-23T03:16:05.991Z,70.19
2023-05-23T03:19:12.120Z,70.27
2023-05-23T03:22:21.626Z,70.47
2023-05-23T03:25:27.746Z,69.90
2023-05-23T03:28:35.006Z,69.82
2023-05-23T03:31:41.145Z,69.73
2023-05-23T03:34:48.031Z,68.44
2023-05-23T03:37:56.777Z,67.89
2023-05-23T03:41:03.685Z,68.07
2023-05-23T03:44:10.423Z,67.81
2023-05-23T03:47:17.198Z,67.05
2023-05-23T03:50:26.679Z,66.54
2023-05-23T03:53:36.752Z,66.04
2023-05-23T03:56:43.851Z,63.35
2023-05-23T03:59:50.906Z,62.89
2023-05-23T04:02:57.737Z,62.08
2023-05-23T04:06:05.279Z,61.04
2023-05-23T04:09:14.744Z,60.83
2023-05-23T04:12:24.596Z,60.62
2023-05-23T04:15:48.660Z,60.41
2023-05-23T04:19:10.058Z,58.88
2023-05-23T04:22:31.051Z,58.11
2023-05-23T04:25:54.864Z,57.41
2023-05-23T04:29:19.261Z,57.07
2023-05-23T04:32:40.548Z,56.45
2023-05-23T04:36:01.967Z,56.69
2023-05-23T04:39:26.617Z,57.27
2023-05-23T04:43:09.700Z,56.46
2023-05-23T04:46:42.605Z,55.84
2023-05-23T04:50:25.238Z,56.62
2023-05-23T04:53:46.194Z,54.59
2023-05-23T04:57:07.576Z,53.67
2023-05-23T05:00:31.973Z,52.52
2023-05-23T05:03:55.005Z,53.17
2023-05-23T05:07:16.544Z,52.68
2023-05-23T05:10:44.705Z,53.03
2023-05-23T05:14:19.552Z,51.76
2023-05-23T05:17:43.525Z,52.14
2023-05-23T05:21:08.489Z,51.14
2023-05-23T05:24:32.104Z,50.80
2023-05-23T05:27:53.437Z,52.52
2023-05-23T05:31:05.578Z,52.00
2023-05-23T05:34:17.175Z,50.98
2023-05-23T05:37:25.198Z,51.86
2023-05-23T05:40:31.305Z,51.74
2023-05-23T05:43:38.108Z,52.59
2023-05-23T05:46:44.200Z,52.49
2023-05-23T05:50:10.984Z,52.59
2023-05-23T05:53:32.190Z,49.54
2023-05-23T05:56:53.473Z,48.33
2023-05-23T06:00:19.427Z,47.08
2023-05-23T06:03:40.668Z,50.32
2023-05-23T06:07:04.313Z,50.11
2023-05-23T06:10:13.424Z,48.33
2023-05-23T06:13:19.548Z,46.88
2023-05-23T06:16:31.465Z,45.07
2023-05-23T06:19:39.051Z,44.54
2023-05-23T06:22:48.637Z,42.53
2023-05-23T06:25:56.630Z,43.25
2023-05-23T06:29:17.527Z,43.40
2023-05-23T06:32:38.495Z,42.82
2023-05-23T06:36:00.608Z,44.25
2023-05-23T06:39:28.564Z,40.98
2023-05-23T06:42:49.748Z,39.05
2023-05-23T06:46:19.764Z,36.94
2023-05-23T06:49:26.193Z,37.30
2023-05-23T06:52:32.876Z,36.60
2023-05-23T06:55:42.980Z,34.41
2023-05-23T06:58:53.025Z,35.37
2023-05-23T07:01:59.154Z,33.74
2023-05-23T07:05:07.160Z,34.42
2023-05-23T07:08:39.305Z,33.39
2023-05-23T07:11:53.663Z,33.45
2023-05-23T07:15:00.382Z,33.57
2023-05-23T07:18:09.384Z,32.92
2023-05-23T07:21:15.611Z,32.78
2023-05-23T07:24:23.902Z,32.88
2023-05-23T07:27:36.600Z,34.98
2023-05-23T07:30:45.104Z,34.99
2023-05-23T07:33:55.401Z,35.72
2023-05-23T07:37:10.376Z,34.92
2023-05-23T07:40:21.837Z,34.68
2023-05-23T07:43:31.330Z,34.72
2023-05-23T07:46:37.396Z,34.76
2023-05-23T07:49:44.911Z,34.48
2023-05-23T07:52:52.321Z,33.25
2023-05-23T07:56:05.268Z,34.62
2023-05-23T07:59:18.663Z,34.85
2023-05-23T08:02:29.360Z,32.91
2023-05-23T08:05:36.381Z,32.45
2023-05-23T08:08:44.064Z,35.38
2023-05-23T08:11:50.596Z,34.69
2023-05-23T08:15:01.010Z,38.18
2023-05-23T08:18:19.269Z,37.16
2023-05-23T08:21:27.391Z,36.02
2023-05-23T08:24:34.571Z,36.48
2023-05-23T08:27:45.106Z,34.95
2023-05-23T08:31:13.503Z,33.56
2023-05-23T08:34:20.514Z,32.97
2023-05-23T08:37:27.617Z,33.20
2023-05-23T08:40:54.614Z,32.47
2023-05-23T08:44:17.979Z,31.63
2023-05-23T08:47:50.993Z,31.72
2023-05-23T08:51:20.324Z,31.88
2023-05-23T08:54:29.849Z,32.66
2023-05-23T08:57:37.497Z,30.34
2023-05-23T09:01:00.203Z,29.98
2023-05-23T09:04:16.023Z,32.03
2023-05-23T09:07:37.530Z,34.61
2023-05-23T09:10:44.830Z,32.72
2023-05-23T09:13:53.754Z,30.38
2023-05-23T09:17:22.878Z,29.04
2023-05-23T09:20:36.555Z,28.48
2023-05-23T09:23:48.581Z,27.36
2023-05-23T09:26:56.560Z,26.55
2023-05-23T09:30:18.716Z,27.60
2023-05-23T09:33:27.530Z,30.30
2023-05-23T09:36:37.923Z,28.14
2023-05-23T09:39:51.312Z,30.87
2023-05-23T09:43:12.668Z,30.28
2023-05-23T09:46:19.985Z,29.11
2023-05-23T09:49:26.146Z,27.62
2023-05-23T09:52:41.382Z,27.89
2023-05-23T09:55:47.395Z,29.34
2023-05-23T09:58:57.249Z,28.92
2023-05-23T10:02:09.935Z,29.50
2023-05-23T10:05:36.618Z,29.41
2023-05-23T10:08:52.361Z,28.53
2023-05-23T10:12:47.188Z,28.46
2023-05-23T10:15:54.870Z,28.44
2023-05-23T10:19:12.094Z,28.73
2023-05-23T10:22:26.590Z,28.76
2023-05-23T10:25:38.488Z,27.51
2023-05-23T10:28:46.007Z,26.50
2023-05-23T10:31:54.977Z,27.57
2023-05-23T10:35:11.458Z,27.55
2023-05-23T10:38:39.081Z,26.36
2023-05-23T10:41:59.533Z,26.21
2023-05-23T10:45:21.103Z,26.18
2023-05-23T10:48:45.008Z,26.58
2023-05-23T10:51:54.248Z,28.79
2023-05-23T10:55:00.253Z,28.65
2023-05-23T10:58:20.834Z,28.79
2023-05-23T11:01:27.970Z,28.92
2023-05-23T11:04:35.213Z,28.75
2023-05-23T11:07:41.141Z,29.66
2023-05-23T11:11:04.084Z,30.35
2023-05-23T11:14:12.811Z,29.77
2023-05-23T11:17:35.444Z,28.42
2023-05-23T11:20:42.146Z,29.44
2023-05-23T11:23:49.224Z,30.77
2023-05-23T11:27:11.018Z,29.61
2023-05-23T11:30:24.015Z,29.85
2023-05-23T11:33:42.090Z,28.47
2023-05-23T11:36:55.912Z,27.36
2023-05-23T11:40:09.135Z,29.39
2023-05-23T11:43:36.737Z,28.32
2023-05-23T11:47:03.842Z,28.92
2023-05-23T11:50:12.651Z,29.63
2023-05-23T11:53:22.077Z,30.85
2023-05-23T11:56:29.309Z,31.59
2023-05-23T11:59:35.534Z,33.33
2023-05-23T12:02:50.316Z,33.46
2023-05-23T12:06:14.251Z,35.11
2023-05-23T12:09:35.608Z,35.94
2023-05-23T12:12:57.197Z,35.12
2023-05-23T12:16:20.081Z,38.12
2023-05-23T12:19:48.824Z,41.15
2023-05-23T12:23:10.696Z,46.14
2023-05-23T12:26:18.350Z,47.51
2023-05-23T12:29:34.841Z,47.65
2023-05-23T12:32:46.447Z,48.37
2023-05-23T12:35:56.997Z,50.63
2023-05-23T12:39:07.985Z,51.53
2023-05-23T12:42:15.747Z,53.58
2023-05-23T12:45:25.904Z,54.82
2023-05-23T12:48:56.599Z,56.86
2023-05-23T12:52:06.062Z,59.08
2023-05-23T12:55:13.861Z,60.59
2023-05-23T12:58:20.541Z,61.59
2023-05-23T13:01:26.766Z,60.71
2023-05-23T13:04:33.639Z,60.68
2023-05-23T13:07:59.776Z,60.33
2023-05-23T13:11:07.309Z,59.59
2023-05-23T13:14:16.462Z,61.89
2023-05-23T13:17:23.535Z,60.42
2023-05-23T13:20:30.999Z,59.86
2023-05-23T13:23:41.188Z,59.24
2023-05-23T13:26:47.347Z,57.88
2023-05-23T13:29:54.243Z,58.03
2023-05-23T13:33:00.534Z,57.58
2023-05-23T13:36:10.095Z,56.40
2023-05-23T13:39:19.919Z,55.40
2023-05-23T13:42:27.370Z,54.76
2023-05-23T13:45:34.346Z,54.60
2023-05-23T13:48:41.262Z,54.01
2023-05-23T13:51:47.400Z,53.79
2023-05-23T13:55:12.381Z,53.02
2023-05-23T13:58:33.421Z,53.35
2023-05-23T14:01:40.260Z,51.65
2023-05-23T14:04:46.337Z,52.18
2023-05-23T14:07:55.281Z,51.76
2023-05-23T14:11:05.677Z,50.80
2023-05-23T14:14:12.879Z,50.49
2023-05-23T14:17:19.270Z,51.57
2023-05-23T14:20:26.715Z,52.68
2023-05-23T14:23:32.814Z,53.92
2023-05-23T14:26:42.360Z,53.46
2023-05-23T14:29:49.274Z,53.50
2023-05-23T14:32:56.239Z,53.62
2023-05-23T14:36:05.150Z,54.23
2023-05-23T14:39:11.989Z,53.88
2023-05-23T14:42:20.531Z,53.35
2023-05-23T14:45:27.747Z,53.43
2023-05-23T14:48:33.906Z,53.94
2023-05-23T14:51:47.526Z,54.15
2023-05-23T14:55:04.133Z,54.24
2023-05-23T14:58:28.094Z,53.88
2023-05-23T15:01:37.284Z,55.09
2023-05-23T15:04:45.055Z,55.43
2023-05-23T15:07:52.208Z,55.50
2023-05-23T15:11:01.281Z,55.11
2023-05-23T15:14:32.493Z,55.47
2023-05-23T15:17:39.233Z,55.80
2023-05-23T15:20:46.578Z,55.27
2023-05-23T15:23:52.572Z,54.65
2023-05-23T15:27:19.441Z,54.82
2023-05-23T15:30:29.460Z,53.39
2023-05-23T15:33:36.323Z,53.70
2023-05-23T15:36:57.250Z,53.09
2023-05-23T15:40:04.416Z,53.69
2023-05-23T15:43:10.356Z,54.02
2023-05-23T15:46:19.824Z,52.17
2023-05-23T15:49:27.261Z,51.42
2023-05-23T15:52:35.007Z,51.58
2023-05-23T15:55:45.260Z,51.20
2023-05-23T15:58:52.320Z,51.19
2023-05-23T16:02:03.377Z,49.99
2023-05-23T16:05:11.407Z,49.69
2023-05-23T16:08:17.448Z,49.71
2023-05-23T16:11:26.711Z,49.75
2023-05-23T16:14:49.267Z,49.85
2023-05-23T16:18:21.223Z,50.65
2023-05-23T16:21:51.601Z,57.63
2023-05-23T16:25:14.324Z,58.43
2023-05-23T16:28:35.508Z,57.56
2023-05-23T16:31:56.498Z,58.06
2023-05-23T16:35:20.250Z,58.61
2023-05-23T16:38:41.257Z,59.38
2023-05-23T16:42:02.379Z,61.64
2023-05-23T16:45:23.603Z,62.59
2023-05-23T16:48:44.607Z,64.16
2023-05-23T16:51:54.789Z,65.18
2023-05-23T16:55:01.784Z,65.64
2023-05-23T16:58:17.002Z,64.98
2023-05-23T17:01:27.910Z,64.34
2023-05-23T17:04:35.396Z,63.37
2023-05-23T17:07:44.148Z,63.04
2023-05-23T17:11:06.419Z,63.29
2023-05-23T17:14:27.753Z,62.44
2023-05-23T17:17:49.263Z,62.97
2023-05-23T17:21:10.251Z,63.73
2023-05-23T17:24:33.907Z,64.18
2023-05-23T17:27:56.180Z,65.09
2023-05-23T17:31:28.929Z,65.23
2023-05-23T17:34:51.654Z,66.14
2023-05-23T17:38:14.674Z,65.51
2023-05-23T17:41:38.329Z,64.85
2023-05-23T17:44:46.621Z,65.13
2023-05-23T17:47:53.583Z,66.43
2023-05-23T17:51:00.545Z,67.17
2023-05-23T17:54:07.376Z,66.87
2023-05-23T17:57:19.990Z,67.29
2023-05-23T18:00:26.251Z,66.94
2023-05-23T18:03:42.778Z,66.53
2023-05-23T18:07:05.092Z,66.68
2023-05-23T18:10:26.211Z,66.47
2023-05-23T18:13:49.753Z,66.33
2023-05-23T18:17:13.216Z,66.94
2023-05-23T18:20:34.272Z,66.87
2023-05-23T18:23:55.125Z,67.17
2023-05-23T18:27:16.270Z,67.75
2023-05-23T18:30:40.139Z,68.34
2023-05-23T18:34:04.840Z,68.86
2023-05-23T18:37:25.842Z,68.70
2023-05-23T18:40:47.338Z,69.68
2023-05-23T18:44:08.227Z,69.85
2023-05-23T18:47:32.287Z,69.95
2023-05-23T18:50:53.260Z,70.26
2023-05-23T18:54:14.138Z,69.96
2023-05-23T18:57:35.176Z,70.17
2023-05-23T19:00:56.059Z,70.88
2023-05-23T19:04:22.509Z,71.99
2023-05-23T19:07:43.702Z,71.81
2023-05-23T19:10:51.264Z,71.47
2023-05-23T19:13:57.508Z,71.85
2023-05-23T19:17:07.777Z,71.87
2023-05-23T19:20:20.364Z,72.00
2023-05-23T19:23:28.399Z,72.16
2023-05-23T19:26:34.592Z,71.80
2023-05-23T19:29:42.667Z,71.85
2023-05-23T19:33:10.307Z,71.33
2023-05-23T19:36:36.956Z,71.50
2023-05-23T19:40:01.033Z,70.71
2023-05-23T19:43:22.087Z,70.99
2023-05-23T19:46:43.166Z,70.50
2023-05-23T19:50:04.198Z,70.36
2023-05-23T19:53:27.730Z,70.40
2023-05-23T19:56:36.212Z,70.79
2023-05-23T19:59:42.570Z,71.35
2023-05-23T20:02:49.401Z,71.48
2023-05-23T20:05:55.366Z,71.14
2023-05-23T20:09:04.823Z,71.14
2023-05-23T20:12:11.939Z,71.55
2023-05-23T20:15:27.654Z,72.09
2023-05-23T20:18:48.065Z,71.73
2023-05-23T20:22:09.276Z,71.81
2023-05-23T20:25:34.062Z,72.18
2023-05-23T20:28:55.119Z,72.90
2023-05-23T20:32:20.779Z,72.92
2023-05-23T20:35:48.534Z,74.14
2023-05-23T20:39:09.542Z,74.73
2023-05-23T20:42:36.667Z,74.45
2023-05-23T20:45:58.211Z,74.45
2023-05-23T20:49:19.417Z,74.12
2023-05-23T20:52:43.187Z,74.05
2023-05-23T20:56:10.502Z,74.57
2023-05-23T20:59:34.178Z,74.13
2023-05-23T21:02:55.226Z,73.93
2023-05-23T21:06:16.535Z,74.40
2023-05-23T21:09:37.696Z,73.48
2023-05-23T21:13:07.959Z,73.85
2023-05-23T21:16:33.318Z,74.36
2023-05-23T21:19:54.600Z,74.02
2023-05-23T21:23:01.567Z,74.75
2023-05-23T21:26:10.935Z,74.44
2023-05-23T21:29:17.774Z,74.87
2023-05-23T21:32:26.522Z,74.37
2023-05-23T21:35:33.303Z,74.65
2023-05-23T21:38:40.865Z,74.84
2023-05-23T21:42:01.877Z,75.23
2023-05-23T21:45:22.902Z,74.70
2023-05-23T21:48:55.332Z,75.46
2023-05-23T21:52:16.319Z,75.09
2023-05-23T21:55:37.246Z,75.13
2023-05-23T21:58:58.126Z,75.96
2023-05-23T22:02:20.419Z,76.40
2023-05-23T22:05:43.921Z,75.66
2023-05-23T22:09:10.442Z,75.74
2023-05-23T22:12:31.345Z,75.68
2023-05-23T22:15:52.433Z,75.62
2023-05-23T22:19:18.326Z,75.54
2023-05-23T22:22:41.893Z,76.17
2023-05-23T22:26:09.326Z,76.21
2023-05-23T22:29:37.121Z,76.25
2023-05-23T22:33:05.360Z,75.52
2023-05-23T22:36:31.576Z,76.33
2023-05-23T22:39:55.110Z,75.53
2023-05-23T22:43:16.918Z,76.10
2023-05-23T22:46:39.841Z,76.24
2023-05-23T22:50:01.094Z,76.42
2023-05-23T22:53:22.850Z,75.90
2023-05-23T22:56:46.444Z,77.09
2023-05-23T23:00:12.270Z,76.68
2023-05-23T23:03:33.357Z,77.16
2023-05-23T23:06:55.092Z,77.57
2023-05-23T23:10:16.204Z,77.16
2023-05-23T23:13:39.933Z,76.61
2023-05-23T23:17:01.203Z,77.26
2023-05-23T23:20:22.933Z,77.90
2023-05-23T23:23:44.010Z,78.02
2023-05-23T23:27:04.957Z,77.82
2023-05-23T23:30:29.376Z,78.33
2023-05-23T23:33:51.024Z,78.95
2023-05-23T23:37:11.947Z,79.57
2023-05-23T23:40:33.051Z,79.07
2023-05-23T23:43:56.327Z,79.61
2023-05-23T23:47:20.115Z,79.60
2023-05-23T23:50:27.710Z,79.18
2023-05-23T23:53:33.960Z,79.29
2023-05-23T23:56:40.806Z,79.33
2023-05-23T23:59:49.299Z,79.09
